This is the latest recevied weather packets stored in our database for station/object NC4M. If no packets are shown the sender has not sent any weather packets the latest 10 day(s).
| Time | Temp. | Humidity | Pressure | Rain* | Wind** | Luminosity | Snow |
|---|---|---|---|---|---|---|---|
| 1787422859 | 26.67° C | 68% | 1019 hPa | 0 mm | - | 487 W/m² | - |
| 1787422555 | 26.67° C | 71% | 1019 hPa | 0 mm | - | 374 W/m² | - |
| 1787422250 | 26.67° C | 72% | 1019 hPa | 0 mm | - | 448 W/m² | - |
| 1787421947 | 26.67° C | 70% | 1019.2 hPa | 0 mm | - | 431 W/m² | - |
| 1787421643 | 26.11° C | 73% | 1019 hPa | 0 mm | - | 480 W/m² | - |
| 1787421338 | 25.56° C | 74% | 1019 hPa | 0 mm | - | 236 W/m² | - |
| 1787421033 | 25° C | 75% | 1019.2 hPa | 0 mm | - | 233 W/m² | - |
| 1787420728 | 25° C | 77% | 1019.4 hPa | 0 mm | - | 153 W/m² | - |
| 1787420424 | 25° C | 79% | 1019.2 hPa | 0 mm | - | 92 W/m² | - |
| 1787420121 | 25° C | 77% | 1019.2 hPa | 0 mm | - | 61 W/m² | - |
| 1787419817 | 25° C | 77% | 1019.2 hPa | 0 mm | - | 70 W/m² | - |
| 1787419512 | 25.56° C | 75% | 1019.4 hPa | 0 mm | - | 79 W/m² | - |
| 1787419208 | 25.56° C | 76% | 1019.5 hPa | 0 mm | - | 92 W/m² | - |
| 1787418904 | 25.56° C | 76% | 1019.8 hPa | 0 mm | - | 96 W/m² | - |
| 1787418599 | 26.11° C | 76% | 1019.8 hPa | 0 mm | - | 102 W/m² | - |
| 1787418295 | 26.11° C | 76% | 1020 hPa | 0 mm | - | 133 W/m² | - |
| 1787417991 | 26.67° C | 75% | 1020 hPa | 0 mm | - | 173 W/m² | - |
| 1787417687 | 26.67° C | 75% | 1020.2 hPa | 0 mm | - | 228 W/m² | - |
| 1787417386 | 26.67° C | 76% | 1020.3 hPa | 0 mm | - | 197 W/m² | - |
| 1787417082 | 26.67° C | 74% | 1020.1 hPa | 0 mm | - | 210 W/m² | - |
| 1787416778 | 26.67° C | 76% | 1019.9 hPa | 0 mm | - | 286 W/m² | - |
| 1787416473 | 27.22° C | 75% | 1019.7 hPa | 0 mm | - | 329 W/m² | - |
| 1787416168 | 27.22° C | 76% | 1019.6 hPa | 0 mm | - | 222 W/m² | - |
| 1787415864 | 27.22° C | 77% | 1019.6 hPa | 0 mm | - | 216 W/m² | - |
| 1787415563 | 27.22° C | 77% | 1019.5 hPa | 0 mm | - | 193 W/m² | - |
* Rain latest hour (hover to see other rain measurements)
** Current wind speed in m/s (hover to see current wind gust speed)